createdAt,value
2018-06-08T00:00:21.361Z,10.87
2018-06-08T00:02:49.563Z,10.20
2018-06-08T00:05:17.762Z,10.50
2018-06-08T00:07:45.959Z,11.80
2018-06-08T00:10:14.147Z,9.40
2018-06-08T00:12:42.389Z,9.70
2018-06-08T00:15:10.642Z,11.73
2018-06-08T00:17:38.902Z,13.77
2018-06-08T00:20:07.099Z,12.60
2018-06-08T00:22:35.324Z,11.50
2018-06-08T00:25:03.621Z,9.70
2018-06-08T00:27:31.885Z,12.83
2018-06-08T00:30:00.095Z,13.33
2018-06-08T00:32:28.282Z,13.20
2018-06-08T00:34:56.496Z,15.37
2018-06-08T00:37:24.687Z,13.67
2018-06-08T00:39:52.900Z,15.60
2018-06-08T00:42:21.144Z,16.17
2018-06-08T00:44:49.424Z,12.73
2018-06-08T00:47:17.664Z,12.70
2018-06-08T00:49:45.897Z,14.40
2018-06-08T00:52:14.153Z,11.97
2018-06-08T00:54:42.332Z,12.53
2018-06-08T00:57:10.550Z,11.93
2018-06-08T00:59:38.748Z,12.43
2018-06-08T01:02:06.923Z,17.47
2018-06-08T01:04:35.112Z,12.07
2018-06-08T01:07:03.325Z,12.23
2018-06-08T01:09:31.528Z,13.90
2018-06-08T01:11:59.795Z,10.60
2018-06-08T01:14:30.945Z,12.30
2018-06-08T01:16:59.977Z,12.30
2018-06-08T01:19:28.916Z,12.90
2018-06-08T01:21:57.165Z,11.90
2018-06-08T01:24:25.375Z,14.37
2018-06-08T01:26:53.579Z,9.20
2018-06-08T01:29:21.786Z,12.43
2018-06-08T01:31:49.967Z,11.43
2018-06-08T01:34:18.224Z,12.07
2018-06-08T01:36:46.447Z,10.10
2018-06-08T01:39:14.643Z,11.63
2018-06-08T01:41:42.893Z,10.00
2018-06-08T01:44:11.143Z,9.57
2018-06-08T01:46:39.420Z,13.20
2018-06-08T01:49:07.611Z,11.63
2018-06-08T01:51:35.875Z,12.23
2018-06-08T01:54:04.138Z,8.90
2018-06-08T01:56:32.311Z,7.93
2018-06-08T01:59:00.506Z,12.33
2018-06-08T02:01:28.947Z,11.10
2018-06-08T02:03:57.210Z,14.30
2018-06-08T02:06:25.395Z,11.63
2018-06-08T02:08:53.567Z,13.03
2018-06-08T02:11:21.857Z,13.33
2018-06-08T02:13:50.105Z,13.97
2018-06-08T02:16:18.330Z,12.50
2018-06-08T02:18:46.512Z,12.80
2018-06-08T02:21:14.834Z,13.27
2018-06-08T02:23:43.055Z,14.10
2018-06-08T02:26:11.243Z,10.70
2018-06-08T02:28:39.438Z,9.37
2018-06-08T02:31:07.833Z,11.90
2018-06-08T02:33:36.077Z,15.17
2018-06-08T02:36:04.283Z,11.07
2018-06-08T02:38:32.472Z,13.70
2018-06-08T02:41:00.670Z,14.57
2018-06-08T02:43:28.899Z,17.70
2018-06-08T02:45:57.080Z,19.03
2018-06-08T02:48:25.283Z,13.47
2018-06-08T02:50:53.467Z,14.00
2018-06-08T02:53:21.682Z,16.20
2018-06-08T02:55:49.881Z,10.93
2018-06-08T02:58:18.063Z,13.57
2018-06-08T03:00:46.266Z,14.50
2018-06-08T03:03:14.501Z,12.83
2018-06-08T03:05:42.719Z,12.30
2018-06-08T03:08:10.897Z,16.30
2018-06-08T03:10:39.091Z,14.40
2018-06-08T03:13:07.349Z,11.17
2018-06-08T03:15:35.608Z,11.53
2018-06-08T03:18:03.862Z,11.43
2018-06-08T03:20:32.102Z,10.87
2018-06-08T03:23:00.347Z,14.00
2018-06-08T03:25:28.555Z,10.93
2018-06-08T03:27:56.757Z,13.30
2018-06-08T03:30:24.963Z,12.07
2018-06-08T03:32:53.153Z,12.50
2018-06-08T03:35:21.343Z,19.20
2018-06-08T03:37:49.547Z,10.00
2018-06-08T03:40:17.752Z,9.00
2018-06-08T03:42:46.025Z,11.37
2018-06-08T03:45:14.280Z,14.13
2018-06-08T03:47:43.332Z,14.23
2018-06-08T03:50:11.536Z,14.13
2018-06-08T03:52:39.718Z,11.30
2018-06-08T03:55:07.907Z,11.00
2018-06-08T03:57:36.095Z,15.27
2018-06-08T04:00:04.288Z,13.93
2018-06-08T04:02:32.544Z,14.70
2018-06-08T04:05:00.727Z,14.47
2018-06-08T04:07:28.919Z,12.43
2018-06-08T04:09:57.133Z,18.70
2018-06-08T04:12:25.243Z,13.07
2018-06-08T04:14:53.457Z,14.13
2018-06-08T04:17:21.656Z,14.30
2018-06-08T04:19:49.863Z,22.20
2018-06-08T04:22:18.049Z,12.30
2018-06-08T04:24:46.269Z,10.83
2018-06-08T04:27:14.465Z,17.60
2018-06-08T04:29:42.676Z,15.90
2018-06-08T04:32:10.890Z,15.20
2018-06-08T04:34:39.083Z,16.93
2018-06-08T04:37:07.286Z,17.83
2018-06-08T04:39:35.505Z,16.43
2018-06-08T04:42:03.769Z,17.87
2018-06-08T04:44:31.991Z,17.70
2018-06-08T04:47:00.192Z,12.40
2018-06-08T04:49:28.217Z,17.97
2018-06-08T04:51:56.432Z,14.27
2018-06-08T04:54:24.627Z,14.20
2018-06-08T04:56:52.845Z,14.10
2018-06-08T04:59:20.947Z,13.43
2018-06-08T05:01:49.329Z,15.10
2018-06-08T05:04:17.545Z,16.10
2018-06-08T05:06:45.738Z,11.80
2018-06-08T05:09:13.965Z,17.83
2018-06-08T05:11:42.205Z,13.40
2018-06-08T05:14:10.411Z,14.70
2018-06-08T05:16:38.624Z,15.73
2018-06-08T05:19:06.840Z,14.70
2018-06-08T05:21:35.100Z,14.10
2018-06-08T05:24:03.316Z,18.70
2018-06-08T05:26:31.528Z,18.20
2018-06-08T05:28:59.711Z,17.60
2018-06-08T05:31:28.076Z,12.20
2018-06-08T05:33:56.328Z,11.00
2018-06-08T05:36:24.531Z,22.50
2018-06-08T05:38:52.732Z,13.87
2018-06-08T05:41:21.006Z,17.83
2018-06-08T05:43:49.191Z,13.10
2018-06-08T05:46:17.435Z,19.97
2018-06-08T05:48:46.806Z,14.43
2018-06-08T05:51:15.010Z,15.70
2018-06-08T05:53:43.256Z,17.27
2018-06-08T05:56:11.413Z,14.43
2018-06-08T05:58:39.647Z,22.50
2018-06-08T06:01:07.883Z,17.70
2018-06-08T06:03:36.039Z,17.70
2018-06-08T06:06:04.267Z,17.83
2018-06-08T06:08:32.543Z,19.67
2018-06-08T06:11:00.751Z,19.90
2018-06-08T06:13:28.951Z,15.23
2018-06-08T06:15:57.145Z,19.50
2018-06-08T06:18:25.359Z,18.37
2018-06-08T06:20:53.548Z,26.47
2018-06-08T06:23:21.755Z,16.73
2018-06-08T06:25:49.958Z,16.90
2018-06-08T06:28:18.142Z,15.17
2018-06-08T06:30:46.358Z,17.23
2018-06-08T06:33:14.556Z,17.93
2018-06-08T06:35:42.775Z,19.37
2018-06-08T06:38:10.967Z,23.23
2018-06-08T06:40:39.175Z,24.00
2018-06-08T06:43:07.371Z,17.03
2018-06-08T06:45:35.555Z,25.97
2018-06-08T06:48:03.599Z,18.37
2018-06-08T06:50:31.786Z,18.13
2018-06-08T06:52:59.962Z,17.23
2018-06-08T06:55:28.188Z,17.03
2018-06-08T06:57:56.379Z,14.83
2018-06-08T07:00:24.587Z,14.67
2018-06-08T07:02:52.854Z,16.90
2018-06-08T07:05:21.023Z,18.83
2018-06-08T07:07:49.227Z,19.63
2018-06-08T07:10:17.438Z,13.90
2018-06-08T07:12:45.670Z,15.47
2018-06-08T07:15:13.823Z,18.57
2018-06-08T07:17:41.987Z,15.97
2018-06-08T07:20:10.203Z,17.73
2018-06-08T07:22:38.379Z,19.50
2018-06-08T07:25:06.597Z,18.20
2018-06-08T07:27:34.787Z,19.77
2018-06-08T07:30:02.996Z,17.30
2018-06-08T07:32:31.259Z,15.47
2018-06-08T07:34:59.452Z,16.43
2018-06-08T07:37:27.727Z,14.80
2018-06-08T07:39:55.938Z,20.23
2018-06-08T07:42:24.112Z,16.23
2018-06-08T07:44:52.304Z,16.30
2018-06-08T07:47:20.491Z,19.53
2018-06-08T07:49:48.703Z,14.37
2018-06-08T07:52:16.891Z,18.03
2018-06-08T07:54:45.091Z,16.77
2018-06-08T07:57:13.389Z,16.00
2018-06-08T07:59:41.579Z,22.57
2018-06-08T08:02:09.853Z,18.73
2018-06-08T08:04:38.079Z,22.10
2018-06-08T08:07:06.267Z,15.20
2018-06-08T08:09:34.451Z,22.10
2018-06-08T08:12:02.675Z,16.43
2018-06-08T08:14:30.883Z,13.83
2018-06-08T08:16:59.130Z,17.20
2018-06-08T08:19:27.354Z,14.67
2018-06-08T08:21:55.576Z,16.17
2018-06-08T08:24:23.788Z,10.83
2018-06-08T08:26:52.256Z,17.73
2018-06-08T08:29:20.455Z,21.13
2018-06-08T08:31:48.738Z,15.97
2018-06-08T08:34:16.975Z,14.67
2018-06-08T08:36:45.151Z,12.97
2018-06-08T08:39:13.359Z,12.23
2018-06-08T08:41:41.623Z,13.23
2018-06-08T08:44:09.802Z,13.73
2018-06-08T08:46:38.004Z,14.37
2018-06-08T08:49:06.199Z,14.83
2018-06-08T08:51:34.519Z,12.57
2018-06-08T08:54:02.670Z,13.03
2018-06-08T08:56:30.859Z,10.60
2018-06-08T08:58:59.047Z,12.30
2018-06-08T09:01:27.371Z,14.20
2018-06-08T09:03:55.561Z,12.33
2018-06-08T09:06:23.753Z,16.67
2018-06-08T09:08:51.947Z,14.83
2018-06-08T09:11:20.254Z,12.97
2018-06-08T09:13:48.449Z,11.03
2018-06-08T09:16:16.402Z,9.77
2018-06-08T09:18:44.621Z,11.83
2018-06-08T09:21:12.827Z,13.97
2018-06-08T09:23:41.063Z,11.03
2018-06-08T09:26:09.234Z,14.23
2018-06-08T09:28:37.422Z,14.00
2018-06-08T09:31:05.623Z,16.10
2018-06-08T09:33:33.811Z,10.17
2018-06-08T09:36:02.024Z,12.53
2018-06-08T09:38:30.203Z,12.27
2018-06-08T09:40:58.392Z,14.57
2018-06-08T09:43:26.605Z,15.53
2018-06-08T09:45:54.805Z,10.83
2018-06-08T09:48:23.073Z,12.33
2018-06-08T09:50:51.266Z,11.83
2018-06-08T09:53:19.607Z,11.87
2018-06-08T09:55:47.795Z,10.40
2018-06-08T09:58:15.968Z,9.70
2018-06-08T10:00:43.932Z,8.77
2018-06-08T10:03:12.132Z,10.17
2018-06-08T10:05:40.311Z,9.73
2018-06-08T10:08:08.527Z,12.07
2018-06-08T10:10:36.720Z,10.43
2018-06-08T10:13:04.951Z,10.17
2018-06-08T10:15:33.135Z,11.20
2018-06-08T10:18:01.359Z,12.00
2018-06-08T10:20:29.559Z,11.37
2018-06-08T10:22:57.506Z,15.10
2018-06-08T10:25:25.721Z,10.50
2018-06-08T10:27:53.694Z,8.50
2018-06-08T10:30:21.871Z,8.30
2018-06-08T10:32:49.801Z,11.17
2018-06-08T10:35:18.012Z,10.23
2018-06-08T10:37:46.214Z,10.27
2018-06-08T10:40:14.412Z,13.13
2018-06-08T10:42:42.599Z,8.90
2018-06-08T10:45:10.806Z,8.53
2018-06-08T10:47:39.020Z,6.63
2018-06-08T10:50:07.171Z,8.50
2018-06-08T10:52:35.361Z,7.67
2018-06-08T10:55:03.570Z,7.00
2018-06-08T10:57:31.835Z,9.10
2018-06-08T10:59:59.969Z,6.17
2018-06-08T11:02:28.162Z,7.40
2018-06-08T11:04:56.347Z,8.77
2018-06-08T11:07:24.541Z,6.83
2018-06-08T11:09:52.811Z,8.10
2018-06-08T11:12:21.058Z,6.53
2018-06-08T11:14:49.244Z,10.67
2018-06-08T11:17:17.438Z,9.87
2018-06-08T11:19:45.640Z,8.00
2018-06-08T11:22:13.885Z,6.90
2018-06-08T11:24:42.074Z,7.03
2018-06-08T11:27:10.963Z,5.53
2018-06-08T11:29:39.152Z,6.40
2018-06-08T11:32:07.394Z,8.73
2018-06-08T11:34:35.597Z,7.20
2018-06-08T11:37:03.793Z,7.13
2018-06-08T11:39:32.007Z,6.13
2018-06-08T11:42:00.251Z,7.03
2018-06-08T11:44:28.427Z,7.63
2018-06-08T11:46:56.640Z,5.77
2018-06-08T11:49:24.595Z,6.37
2018-06-08T11:51:52.864Z,6.57
2018-06-08T11:54:21.097Z,5.80
2018-06-08T11:56:49.265Z,5.37
2018-06-08T11:59:17.467Z,5.27
2018-06-08T12:01:45.697Z,4.60
2018-06-08T12:04:14.034Z,6.77
2018-06-08T12:06:42.215Z,5.00
2018-06-08T12:09:10.407Z,6.70
2018-06-08T12:11:38.667Z,5.20
2018-06-08T12:14:06.849Z,6.00
2018-06-08T12:16:35.059Z,5.20
2018-06-08T12:19:03.255Z,5.67
2018-06-08T12:21:31.497Z,6.40
2018-06-08T12:23:59.883Z,7.40
2018-06-08T12:26:28.063Z,10.60
2018-06-08T12:28:56.264Z,6.03
2018-06-08T12:31:24.818Z,6.80
2018-06-08T12:33:58.316Z,5.53
2018-06-08T12:36:26.487Z,7.27
2018-06-08T12:38:54.680Z,6.10
2018-06-08T12:41:22.957Z,9.83
2018-06-08T12:43:51.115Z,7.67
2018-06-08T12:46:19.350Z,6.50
2018-06-08T12:48:47.551Z,10.27
2018-06-08T12:51:15.765Z,5.90
2018-06-08T12:53:43.978Z,7.40
2018-06-08T12:56:12.156Z,5.30
2018-06-08T12:58:40.372Z,7.77
2018-06-08T13:01:08.475Z,6.77
2018-06-08T13:03:36.839Z,5.27
2018-06-08T13:06:05.067Z,5.67
2018-06-08T13:08:33.258Z,5.90
2018-06-08T13:11:01.467Z,6.60
2018-06-08T13:13:29.508Z,6.53
2018-06-08T13:15:57.692Z,6.30
2018-06-08T13:18:25.911Z,5.33
2018-06-08T13:20:54.836Z,6.40
2018-06-08T13:23:23.079Z,4.77
2018-06-08T13:25:51.259Z,4.50
2018-06-08T13:28:19.431Z,4.87
2018-06-08T13:30:47.639Z,8.37
2018-06-08T13:33:15.886Z,4.60
2018-06-08T13:35:44.088Z,4.93
2018-06-08T13:38:12.271Z,5.57
2018-06-08T13:40:40.446Z,4.93
2018-06-08T13:43:08.655Z,5.10
2018-06-08T13:45:36.838Z,4.53
2018-06-08T13:48:05.039Z,4.03
2018-06-08T13:50:33.225Z,4.60
2018-06-08T13:53:01.432Z,5.10
2018-06-08T13:55:29.624Z,4.13
2018-06-08T13:57:57.794Z,5.00
2018-06-08T14:00:26.012Z,4.43
2018-06-08T14:02:54.196Z,4.33
2018-06-08T14:05:22.398Z,4.30
2018-06-08T14:07:50.600Z,4.80
2018-06-08T14:10:18.791Z,3.83
2018-06-08T14:12:47.002Z,4.67
2018-06-08T14:15:15.172Z,4.93
2018-06-08T14:17:43.875Z,3.90
2018-06-08T14:20:12.087Z,4.83
2018-06-08T14:22:40.278Z,3.43
2018-06-08T14:25:08.488Z,4.93
2018-06-08T14:27:36.743Z,5.40
2018-06-08T14:30:05.495Z,5.10
2018-06-08T14:32:33.732Z,3.17
2018-06-08T14:35:01.984Z,4.40
2018-06-08T14:37:30.585Z,5.10
2018-06-08T14:39:58.760Z,4.17
2018-06-08T14:42:27.587Z,3.97
2018-06-08T14:44:55.788Z,5.53
2018-06-08T14:47:23.963Z,3.80
2018-06-08T14:49:52.258Z,4.50
2018-06-08T14:52:20.474Z,5.53
2018-06-08T14:54:48.716Z,4.33
2018-06-08T14:57:16.971Z,4.43
2018-06-08T14:59:45.835Z,4.50
2018-06-08T15:02:14.045Z,5.57
2018-06-08T15:04:42.319Z,5.57
2018-06-08T15:07:10.436Z,4.77
2018-06-08T15:09:38.648Z,4.00
2018-06-08T15:12:06.825Z,4.30
2018-06-08T15:14:35.019Z,4.00
2018-06-08T15:17:02.969Z,4.77
2018-06-08T15:19:31.167Z,4.33
2018-06-08T15:21:59.427Z,7.70
2018-06-08T15:24:27.630Z,6.30
2018-06-08T15:26:55.855Z,4.80
2018-06-08T15:29:24.116Z,5.07
2018-06-08T15:31:52.514Z,4.87
2018-06-08T15:34:20.693Z,3.40
2018-06-08T15:36:48.886Z,3.23
2018-06-08T15:39:17.086Z,4.30
2018-06-08T15:41:45.317Z,3.83
2018-06-08T15:44:13.505Z,3.70
2018-06-08T15:46:41.714Z,3.80
2018-06-08T15:49:11.715Z,3.53
2018-06-08T15:51:40.298Z,3.83
2018-06-08T15:54:08.506Z,4.60
2018-06-08T15:56:36.687Z,4.13
2018-06-08T15:59:04.922Z,6.00
2018-06-08T16:01:32.915Z,7.30
2018-06-08T16:04:01.120Z,5.90
2018-06-08T16:06:29.322Z,6.07
2018-06-08T16:08:57.516Z,7.37
2018-06-08T16:11:25.869Z,6.47
2018-06-08T16:13:54.072Z,7.70
2018-06-08T16:16:22.256Z,8.23
2018-06-08T16:18:50.447Z,8.13
2018-06-08T16:21:18.705Z,6.37
2018-06-08T16:23:46.684Z,8.70
2018-06-08T16:26:14.891Z,6.97
2018-06-08T16:28:43.095Z,7.73
2018-06-08T16:31:11.262Z,11.17
2018-06-08T16:33:39.451Z,9.40
2018-06-08T16:36:07.685Z,7.00
2018-06-08T16:38:35.858Z,8.73
2018-06-08T16:41:04.092Z,11.40
2018-06-08T16:43:32.283Z,8.93
2018-06-08T16:46:00.488Z,9.43
2018-06-08T16:48:28.699Z,7.60
2018-06-08T16:50:56.904Z,13.80
2018-06-08T16:53:25.073Z,8.03
2018-06-08T16:55:53.259Z,7.63
2018-06-08T16:58:21.438Z,7.03
2018-06-08T17:00:49.656Z,11.63
2018-06-08T17:03:17.836Z,9.00
2018-06-08T17:05:46.063Z,10.47
2018-06-08T17:08:14.220Z,7.27
2018-06-08T17:10:42.415Z,7.67
2018-06-08T17:13:10.639Z,8.90
2018-06-08T17:15:38.835Z,5.80
2018-06-08T17:18:07.126Z,5.60
2018-06-08T17:20:35.248Z,6.67
2018-06-08T17:23:03.418Z,6.40
2018-06-08T17:25:31.639Z,8.00
2018-06-08T17:27:59.839Z,6.70
2018-06-08T17:30:27.783Z,6.90
2018-06-08T17:32:55.977Z,7.40
2018-06-08T17:35:24.174Z,11.07
2018-06-08T17:37:52.383Z,12.13
2018-06-08T17:40:20.659Z,8.23
2018-06-08T17:42:48.860Z,6.40
2018-06-08T17:45:17.104Z,9.07
2018-06-08T17:47:45.272Z,6.90
2018-06-08T17:50:13.500Z,8.60
2018-06-08T17:52:41.675Z,8.20
2018-06-08T17:55:09.870Z,8.30
2018-06-08T17:57:40.434Z,8.00
2018-06-08T18:00:09.035Z,9.80
2018-06-08T18:02:37.366Z,8.50
2018-06-08T18:05:06.111Z,6.40
2018-06-08T18:07:34.319Z,7.20
2018-06-08T18:10:02.509Z,7.73
2018-06-08T18:12:30.699Z,7.23
2018-06-08T18:14:58.919Z,6.63
2018-06-08T18:17:27.132Z,9.47
2018-06-08T18:19:55.335Z,7.00
2018-06-08T18:22:23.560Z,6.80
2018-06-08T18:24:51.737Z,9.77
2018-06-08T18:27:19.947Z,8.87
2018-06-08T18:29:48.152Z,9.33
2018-06-08T18:32:16.345Z,9.23
2018-06-08T18:34:44.736Z,6.33
2018-06-08T18:37:12.929Z,6.80
2018-06-08T18:39:41.405Z,8.50
2018-06-08T18:42:09.583Z,6.77
2018-06-08T18:44:37.791Z,7.70
2018-06-08T18:47:06.011Z,7.40
2018-06-08T18:49:34.219Z,7.80
2018-06-08T18:52:02.464Z,9.00
2018-06-08T18:54:30.647Z,9.43
2018-06-08T18:56:58.844Z,6.80
2018-06-08T18:59:27.030Z,7.57
2018-06-08T19:01:55.290Z,6.10
2018-06-08T19:04:23.492Z,8.93
2018-06-08T19:06:51.668Z,8.47
2018-06-08T19:09:19.894Z,8.17
2018-06-08T19:11:48.086Z,8.13
2018-06-08T19:14:16.290Z,6.67
2018-06-08T19:16:44.482Z,9.60
2018-06-08T19:19:12.683Z,9.03
2018-06-08T19:21:41.370Z,6.67
2018-06-08T19:24:09.588Z,8.80
2018-06-08T19:26:37.774Z,7.33
2018-06-08T19:29:05.993Z,10.23
2018-06-08T19:31:34.273Z,8.50
2018-06-08T19:34:02.487Z,10.40
2018-06-08T19:36:30.691Z,9.67
2018-06-08T19:38:58.891Z,8.73
2018-06-08T19:41:27.208Z,8.70
2018-06-08T19:43:55.396Z,8.77
2018-06-08T19:46:23.601Z,10.23
2018-06-08T19:48:52.019Z,10.23
2018-06-08T19:51:20.310Z,7.70
2018-06-08T19:53:48.510Z,9.60
2018-06-08T19:56:16.715Z,8.70
2018-06-08T19:58:44.976Z,8.20
2018-06-08T20:01:13.123Z,10.87
2018-06-08T20:03:41.383Z,11.70
2018-06-08T20:06:09.579Z,8.73
2018-06-08T20:08:37.859Z,9.20
2018-06-08T20:11:06.059Z,9.60
2018-06-08T20:13:34.232Z,9.07
2018-06-08T20:16:02.705Z,8.00
2018-06-08T20:18:30.911Z,7.40
2018-06-08T20:20:59.115Z,11.20
2018-06-08T20:23:27.327Z,11.77
2018-06-08T20:25:55.534Z,10.13
2018-06-08T20:28:23.765Z,9.73
2018-06-08T20:30:51.984Z,11.97
2018-06-08T20:33:20.163Z,9.23
2018-06-08T20:35:48.354Z,8.80
2018-06-08T20:38:16.539Z,10.87
2018-06-08T20:40:44.751Z,9.33
2018-06-08T20:43:12.980Z,9.73
2018-06-08T20:45:41.162Z,8.03
2018-06-08T20:48:09.411Z,8.13
2018-06-08T20:50:37.599Z,11.60
2018-06-08T20:53:05.871Z,9.70
2018-06-08T20:55:34.073Z,9.50
2018-06-08T20:58:02.495Z,7.90
2018-06-08T21:00:30.700Z,8.10
2018-06-08T21:02:58.970Z,9.37
2018-06-08T21:05:27.160Z,10.07
2018-06-08T21:07:55.275Z,7.50
2018-06-08T21:10:23.460Z,7.23
2018-06-08T21:12:51.736Z,8.03
2018-06-08T21:15:19.985Z,8.40
2018-06-08T21:17:48.224Z,9.80
2018-06-08T21:20:16.511Z,12.50
2018-06-08T21:22:44.691Z,10.03
2018-06-08T21:25:12.902Z,12.03
2018-06-08T21:27:41.095Z,8.10
2018-06-08T21:30:09.295Z,13.33
2018-06-08T21:32:37.491Z,7.50
2018-06-08T21:35:05.968Z,7.63
2018-06-08T21:37:34.343Z,9.50
2018-06-08T21:40:02.512Z,8.20
2018-06-08T21:42:30.768Z,8.90
2018-06-08T21:44:58.955Z,7.70
2018-06-08T21:47:27.135Z,5.87
2018-06-08T21:49:55.371Z,9.50
2018-06-08T21:52:23.640Z,7.40
2018-06-08T21:54:51.892Z,6.90
2018-06-08T21:57:20.122Z,6.47
2018-06-08T21:59:48.362Z,9.97
2018-06-08T22:02:16.602Z,6.93
2018-06-08T22:04:44.816Z,10.63
2018-06-08T22:07:13.019Z,6.83
2018-06-08T22:09:41.200Z,7.47
2018-06-08T22:12:09.627Z,8.97
2018-06-08T22:14:37.819Z,9.13
2018-06-08T22:17:06.155Z,7.57
2018-06-08T22:19:34.339Z,7.20
2018-06-08T22:22:02.589Z,7.53
2018-06-08T22:24:30.767Z,6.57
2018-06-08T22:26:58.983Z,7.43
2018-06-08T22:29:27.179Z,6.10
2018-06-08T22:31:55.376Z,8.00
2018-06-08T22:34:23.466Z,4.83
2018-06-08T22:36:51.646Z,6.60
2018-06-08T22:39:19.855Z,6.23
2018-06-08T22:41:48.121Z,6.43
2018-06-08T22:44:16.372Z,9.53
2018-06-08T22:46:44.616Z,5.90
2018-06-08T22:49:12.811Z,11.73
2018-06-08T22:51:41.100Z,6.10
2018-06-08T22:54:09.336Z,8.17
2018-06-08T22:56:37.648Z,9.17
2018-06-08T22:59:05.899Z,7.90
2018-06-08T23:01:34.161Z,7.00
2018-06-08T23:04:02.540Z,6.97
2018-06-08T23:06:30.723Z,6.80
2018-06-08T23:08:58.929Z,6.93
2018-06-08T23:11:27.162Z,8.77
2018-06-08T23:13:55.357Z,7.80
2018-06-08T23:16:23.579Z,8.43
2018-06-08T23:18:51.759Z,6.10
2018-06-08T23:21:20.022Z,7.40
2018-06-08T23:23:48.194Z,6.83
2018-06-08T23:26:16.391Z,6.17
2018-06-08T23:28:44.599Z,9.87
2018-06-08T23:31:12.702Z,8.30
2018-06-08T23:33:40.912Z,8.87
2018-06-08T23:36:09.106Z,5.60
2018-06-08T23:38:37.303Z,10.23
2018-06-08T23:41:05.564Z,6.03
2018-06-08T23:43:33.808Z,8.80
2018-06-08T23:46:02.004Z,7.33
2018-06-08T23:48:30.160Z,12.60
2018-06-08T23:50:58.366Z,9.70
2018-06-08T23:53:26.568Z,8.47
2018-06-08T23:55:54.746Z,6.30
2018-06-08T23:58:22.946Z,7.50
